sensor_id;sensor_type;location;lat;lon;timestamp;temperature;humidity
59309;DHT22;48433;53.016;-2.260;2022-10-16T00:01:24;9.80;99.90
59309;DHT22;48433;53.016;-2.260;2022-10-16T00:03:52;9.70;99.90
59309;DHT22;48433;53.016;-2.260;2022-10-16T00:06:21;9.70;99.90
59309;DHT22;48433;53.016;-2.260;2022-10-16T00:08:49;9.70;99.90
59309;DHT22;48433;53.016;-2.260;2022-10-16T00:11:20;9.70;99.90
59309;DHT22;48433;53.016;-2.260;2022-10-16T00:13:50;9.70;99.90
59309;DHT22;48433;53.016;-2.260;2022-10-16T00:16:19;9.70;99.90
59309;DHT22;48433;53.016;-2.260;2022-10-16T00:18:46;9.70;99.90
59309;DHT22;48433;53.016;-2.260;2022-10-16T00:21:20;9.70;99.90
59309;DHT22;48433;53.016;-2.260;2022-10-16T00:24:08;9.70;99.90
59309;DHT22;48433;53.016;-2.260;2022-10-16T00:26:38;9.70;99.90
59309;DHT22;48433;53.016;-2.260;2022-10-16T00:29:05;9.70;99.90
59309;DHT22;48433;53.016;-2.260;2022-10-16T00:31:34;9.70;99.90
59309;DHT22;48433;53.016;-2.260;2022-10-16T00:34:03;9.70;99.90
59309;DHT22;48433;53.016;-2.260;2022-10-16T00:36:30;9.70;99.90
59309;DHT22;48433;53.016;-2.260;2022-10-16T00:38:59;9.70;99.90
59309;DHT22;48433;53.016;-2.260;2022-10-16T00:41:33;9.70;99.90
59309;DHT22;48433;53.016;-2.260;2022-10-16T00:44:03;9.70;99.90
59309;DHT22;48433;53.016;-2.260;2022-10-16T00:46:40;9.70;99.90
59309;DHT22;48433;53.016;-2.260;2022-10-16T00:49:26;9.80;99.90
59309;DHT22;48433;53.016;-2.260;2022-10-16T00:51:54;10.10;99.90
59309;DHT22;48433;53.016;-2.260;2022-10-16T00:54:24;10.30;99.90
59309;DHT22;48433;53.016;-2.260;2022-10-16T00:56:54;10.40;99.90
59309;DHT22;48433;53.016;-2.260;2022-10-16T00:59:26;10.60;99.90
59309;DHT22;48433;53.016;-2.260;2022-10-16T01:01:55;10.70;99.90
59309;DHT22;48433;53.016;-2.260;2022-10-16T01:04:25;10.80;99.90
59309;DHT22;48433;53.016;-2.260;2022-10-16T01:14:48;11.10;99.90
59309;DHT22;48433;53.016;-2.260;2022-10-16T01:17:22;11.10;99.90
59309;DHT22;48433;53.016;-2.260;2022-10-16T01:25:25;11.10;99.90
59309;DHT22;48433;53.016;-2.260;2022-10-16T01:27:59;11.00;99.90
59309;DHT22;48433;53.016;-2.260;2022-10-16T01:30:31;11.00;99.90
59309;DHT22;48433;53.016;-2.260;2022-10-16T01:33:20;10.90;99.90
59309;DHT22;48433;53.016;-2.260;2022-10-16T01:35:53;10.90;99.90
59309;DHT22;48433;53.016;-2.260;2022-10-16T01:38:37;10.80;99.90
59309;DHT22;48433;53.016;-2.260;2022-10-16T01:41:33;10.80;99.90
59309;DHT22;48433;53.016;-2.260;2022-10-16T01:44:18;10.70;99.90
59309;DHT22;48433;53.016;-2.260;2022-10-16T01:46:48;10.70;99.90
59309;DHT22;48433;53.016;-2.260;2022-10-16T01:49:18;10.60;99.90
59309;DHT22;48433;53.016;-2.260;2022-10-16T01:51:49;10.60;99.90
59309;DHT22;48433;53.016;-2.260;2022-10-16T01:54:20;10.50;99.90
59309;DHT22;48433;53.016;-2.260;2022-10-16T01:56:50;10.50;99.90
59309;DHT22;48433;53.016;-2.260;2022-10-16T01:59:20;10.40;99.90
59309;DHT22;48433;53.016;-2.260;2022-10-16T02:02:01;10.40;99.90
59309;DHT22;48433;53.016;-2.260;2022-10-16T02:04:34;10.30;99.90
59309;DHT22;48433;53.016;-2.260;2022-10-16T02:07:03;10.20;99.90
59309;DHT22;48433;53.016;-2.260;2022-10-16T02:09:34;10.20;99.90
59309;DHT22;48433;53.016;-2.260;2022-10-16T02:12:09;10.20;99.90
59309;DHT22;48433;53.016;-2.260;2022-10-16T02:14:38;10.20;99.90
59309;DHT22;48433;53.016;-2.260;2022-10-16T02:17:17;10.10;99.90
59309;DHT22;48433;53.016;-2.260;2022-10-16T02:19:46;10.00;99.90
59309;DHT22;48433;53.016;-2.260;2022-10-16T02:22:43;10.00;99.90
59309;DHT22;48433;53.016;-2.260;2022-10-16T02:33:15;9.80;99.90
59309;DHT22;48433;53.016;-2.260;2022-10-16T02:35:45;9.80;99.90
59309;DHT22;48433;53.016;-2.260;2022-10-16T02:38:15;9.70;99.90
59309;DHT22;48433;53.016;-2.260;2022-10-16T02:40:44;9.70;99.90
59309;DHT22;48433;53.016;-2.260;2022-10-16T02:43:11;9.70;99.90
59309;DHT22;48433;53.016;-2.260;2022-10-16T02:45:39;9.70;99.90
59309;DHT22;48433;53.016;-2.260;2022-10-16T02:48:07;9.70;99.90
59309;DHT22;48433;53.016;-2.260;2022-10-16T02:50:35;9.70;99.90
59309;DHT22;48433;53.016;-2.260;2022-10-16T02:53:02;9.60;99.90
59309;DHT22;48433;53.016;-2.260;2022-10-16T02:55:30;9.60;99.90
59309;DHT22;48433;53.016;-2.260;2022-10-16T02:57:58;9.60;99.90
59309;DHT22;48433;53.016;-2.260;2022-10-16T03:00:25;9.50;99.90
59309;DHT22;48433;53.016;-2.260;2022-10-16T03:02:53;9.40;99.90
59309;DHT22;48433;53.016;-2.260;2022-10-16T03:05:21;9.40;99.90
59309;DHT22;48433;53.016;-2.260;2022-10-16T03:07:53;9.40;99.90
59309;DHT22;48433;53.016;-2.260;2022-10-16T03:10:21;9.40;99.90
59309;DHT22;48433;53.016;-2.260;2022-10-16T03:12:48;9.40;99.90
59309;DHT22;48433;53.016;-2.260;2022-10-16T03:15:16;9.30;99.90
59309;DHT22;48433;53.016;-2.260;2022-10-16T03:17:43;9.30;99.90
59309;DHT22;48433;53.016;-2.260;2022-10-16T03:20:11;9.20;99.90
59309;DHT22;48433;53.016;-2.260;2022-10-16T03:22:38;9.20;99.90
59309;DHT22;48433;53.016;-2.260;2022-10-16T03:25:06;9.10;99.90
59309;DHT22;48433;53.016;-2.260;2022-10-16T03:27:34;9.10;99.90
59309;DHT22;48433;53.016;-2.260;2022-10-16T03:30:02;9.00;99.90
59309;DHT22;48433;53.016;-2.260;2022-10-16T03:32:30;9.00;99.90
59309;DHT22;48433;53.016;-2.260;2022-10-16T03:34:58;9.00;99.90
59309;DHT22;48433;53.016;-2.260;2022-10-16T03:37:25;8.90;99.90
59309;DHT22;48433;53.016;-2.260;2022-10-16T03:39:53;8.80;99.90
59309;DHT22;48433;53.016;-2.260;2022-10-16T03:42:22;8.70;99.90
59309;DHT22;48433;53.016;-2.260;2022-10-16T03:44:49;8.70;99.90
59309;DHT22;48433;53.016;-2.260;2022-10-16T03:47:17;8.70;99.90
59309;DHT22;48433;53.016;-2.260;2022-10-16T03:49:49;8.70;99.90
59309;DHT22;48433;53.016;-2.260;2022-10-16T03:52:17;8.70;99.90
59309;DHT22;48433;53.016;-2.260;2022-10-16T03:54:50;8.70;99.90
59309;DHT22;48433;53.016;-2.260;2022-10-16T03:57:17;8.70;99.90
59309;DHT22;48433;53.016;-2.260;2022-10-16T03:59:45;8.70;99.90
59309;DHT22;48433;53.016;-2.260;2022-10-16T04:02:13;8.60;99.90
59309;DHT22;48433;53.016;-2.260;2022-10-16T04:04:40;8.60;99.90
59309;DHT22;48433;53.016;-2.260;2022-10-16T04:07:08;8.50;99.90
59309;DHT22;48433;53.016;-2.260;2022-10-16T04:09:35;8.50;99.90
59309;DHT22;48433;53.016;-2.260;2022-10-16T04:12:03;8.50;99.90
59309;DHT22;48433;53.016;-2.260;2022-10-16T04:14:31;8.40;99.90
59309;DHT22;48433;53.016;-2.260;2022-10-16T04:16:58;8.40;99.90
59309;DHT22;48433;53.016;-2.260;2022-10-16T04:19:26;8.40;99.90
59309;DHT22;48433;53.016;-2.260;2022-10-16T04:21:54;8.40;99.90
59309;DHT22;48433;53.016;-2.260;2022-10-16T04:24:22;8.30;99.90
59309;DHT22;48433;53.016;-2.260;2022-10-16T04:26:49;8.30;99.90
59309;DHT22;48433;53.016;-2.260;2022-10-16T04:29:17;8.20;99.90
59309;DHT22;48433;53.016;-2.260;2022-10-16T04:31:44;8.20;99.90
59309;DHT22;48433;53.016;-2.260;2022-10-16T04:34:12;8.20;99.90
59309;DHT22;48433;53.016;-2.260;2022-10-16T04:36:40;8.20;99.90
59309;DHT22;48433;53.016;-2.260;2022-10-16T04:39:07;8.20;99.90
59309;DHT22;48433;53.016;-2.260;2022-10-16T04:41:35;8.10;99.90
59309;DHT22;48433;53.016;-2.260;2022-10-16T04:44:02;8.10;99.90
59309;DHT22;48433;53.016;-2.260;2022-10-16T04:46:30;8.10;99.90
59309;DHT22;48433;53.016;-2.260;2022-10-16T04:48:58;8.10;99.90
59309;DHT22;48433;53.016;-2.260;2022-10-16T04:51:26;8.00;99.90
59309;DHT22;48433;53.016;-2.260;2022-10-16T04:53:54;8.00;99.90
59309;DHT22;48433;53.016;-2.260;2022-10-16T04:56:22;7.90;99.90
59309;DHT22;48433;53.016;-2.260;2022-10-16T04:58:50;7.90;99.90
59309;DHT22;48433;53.016;-2.260;2022-10-16T05:01:18;7.90;99.90
59309;DHT22;48433;53.016;-2.260;2022-10-16T05:03:45;7.90;99.90
59309;DHT22;48433;53.016;-2.260;2022-10-16T05:06:13;7.90;99.90
59309;DHT22;48433;53.016;-2.260;2022-10-16T05:08:40;7.90;99.90
59309;DHT22;48433;53.016;-2.260;2022-10-16T05:11:08;7.90;99.90
59309;DHT22;48433;53.016;-2.260;2022-10-16T05:13:36;7.90;99.90
59309;DHT22;48433;53.016;-2.260;2022-10-16T05:16:03;7.90;99.90
59309;DHT22;48433;53.016;-2.260;2022-10-16T05:18:31;8.00;99.90
59309;DHT22;48433;53.016;-2.260;2022-10-16T05:20:58;8.00;99.90
59309;DHT22;48433;53.016;-2.260;2022-10-16T05:23:26;7.90;99.90
59309;DHT22;48433;53.016;-2.260;2022-10-16T05:25:55;7.90;99.90
59309;DHT22;48433;53.016;-2.260;2022-10-16T05:28:26;7.80;99.90
59309;DHT22;48433;53.016;-2.260;2022-10-16T05:30:54;7.80;99.90
59309;DHT22;48433;53.016;-2.260;2022-10-16T05:33:23;7.80;99.90
59309;DHT22;48433;53.016;-2.260;2022-10-16T05:35:51;7.80;99.90
59309;DHT22;48433;53.016;-2.260;2022-10-16T05:38:19;7.80;99.90
59309;DHT22;48433;53.016;-2.260;2022-10-16T05:40:53;7.80;99.90
59309;DHT22;48433;53.016;-2.260;2022-10-16T05:43:20;7.70;99.90
59309;DHT22;48433;53.016;-2.260;2022-10-16T05:46:02;7.70;99.90
59309;DHT22;48433;53.016;-2.260;2022-10-16T05:48:30;7.70;99.90
59309;DHT22;48433;53.016;-2.260;2022-10-16T05:51:01;7.70;99.90
59309;DHT22;48433;53.016;-2.260;2022-10-16T05:53:30;7.80;99.90
59309;DHT22;48433;53.016;-2.260;2022-10-16T05:55:58;7.80;99.90
59309;DHT22;48433;53.016;-2.260;2022-10-16T05:58:34;7.70;99.90
59309;DHT22;48433;53.016;-2.260;2022-10-16T06:01:10;7.70;99.90
59309;DHT22;48433;53.016;-2.260;2022-10-16T06:03:38;7.70;99.90
59309;DHT22;48433;53.016;-2.260;2022-10-16T06:06:11;7.70;99.90
59309;DHT22;48433;53.016;-2.260;2022-10-16T06:08:40;7.60;99.90
59309;DHT22;48433;53.016;-2.260;2022-10-16T06:11:10;7.60;99.90
59309;DHT22;48433;53.016;-2.260;2022-10-16T06:13:37;7.60;99.90
59309;DHT22;48433;53.016;-2.260;2022-10-16T06:16:06;7.50;99.90
59309;DHT22;48433;53.016;-2.260;2022-10-16T06:18:34;7.50;99.90
59309;DHT22;48433;53.016;-2.260;2022-10-16T06:21:08;7.40;99.90
59309;DHT22;48433;53.016;-2.260;2022-10-16T06:23:36;7.40;99.90
59309;DHT22;48433;53.016;-2.260;2022-10-16T06:26:09;7.40;99.90
59309;DHT22;48433;53.016;-2.260;2022-10-16T06:28:37;7.30;99.90
59309;DHT22;48433;53.016;-2.260;2022-10-16T06:31:06;7.30;99.90
59309;DHT22;48433;53.016;-2.260;2022-10-16T06:33:36;7.20;99.90
59309;DHT22;48433;53.016;-2.260;2022-10-16T06:36:06;7.10;99.90
59309;DHT22;48433;53.016;-2.260;2022-10-16T06:38:36;7.00;99.90
59309;DHT22;48433;53.016;-2.260;2022-10-16T06:41:05;6.90;99.90
59309;DHT22;48433;53.016;-2.260;2022-10-16T06:43:33;6.80;99.90
59309;DHT22;48433;53.016;-2.260;2022-10-16T06:46:04;6.80;99.90
59309;DHT22;48433;53.016;-2.260;2022-10-16T06:48:32;6.70;99.90
59309;DHT22;48433;53.016;-2.260;2022-10-16T06:51:05;6.70;99.90
59309;DHT22;48433;53.016;-2.260;2022-10-16T06:53:34;6.60;99.90
59309;DHT22;48433;53.016;-2.260;2022-10-16T06:56:23;6.60;99.90
59309;DHT22;48433;53.016;-2.260;2022-10-16T06:58:51;6.60;99.90
59309;DHT22;48433;53.016;-2.260;2022-10-16T07:01:22;6.60;99.90
59309;DHT22;48433;53.016;-2.260;2022-10-16T07:03:51;6.60;99.90
59309;DHT22;48433;53.016;-2.260;2022-10-16T07:06:21;6.60;99.90
59309;DHT22;48433;53.016;-2.260;2022-10-16T07:08:48;6.70;99.90
59309;DHT22;48433;53.016;-2.260;2022-10-16T07:11:18;6.70;99.90
59309;DHT22;48433;53.016;-2.260;2022-10-16T07:13:47;6.80;99.90
59309;DHT22;48433;53.016;-2.260;2022-10-16T07:16:25;6.90;99.90
59309;DHT22;48433;53.016;-2.260;2022-10-16T07:18:54;7.00;99.90
59309;DHT22;48433;53.016;-2.260;2022-10-16T07:21:29;7.10;99.90
59309;DHT22;48433;53.016;-2.260;2022-10-16T07:23:59;7.20;99.90
59309;DHT22;48433;53.016;-2.260;2022-10-16T07:26:30;7.20;99.90
59309;DHT22;48433;53.016;-2.260;2022-10-16T07:28:58;7.40;99.90
59309;DHT22;48433;53.016;-2.260;2022-10-16T07:31:27;7.50;99.90
59309;DHT22;48433;53.016;-2.260;2022-10-16T07:33:55;7.60;99.90
59309;DHT22;48433;53.016;-2.260;2022-10-16T07:36:25;7.70;99.90
59309;DHT22;48433;53.016;-2.260;2022-10-16T07:38:52;7.90;99.90
59309;DHT22;48433;53.016;-2.260;2022-10-16T07:41:26;8.10;99.90
59309;DHT22;48433;53.016;-2.260;2022-10-16T07:43:54;8.40;99.90
59309;DHT22;48433;53.016;-2.260;2022-10-16T07:46:22;8.80;99.90
59309;DHT22;48433;53.016;-2.260;2022-10-16T07:48:50;9.10;99.90
59309;DHT22;48433;53.016;-2.260;2022-10-16T07:51:20;9.40;99.90
59309;DHT22;48433;53.016;-2.260;2022-10-16T07:53:48;9.70;99.90
59309;DHT22;48433;53.016;-2.260;2022-10-16T07:56:16;10.10;99.90
59309;DHT22;48433;53.016;-2.260;2022-10-16T07:58:45;10.40;99.90
59309;DHT22;48433;53.016;-2.260;2022-10-16T08:01:14;10.80;99.90
59309;DHT22;48433;53.016;-2.260;2022-10-16T08:03:47;11.20;99.90
59309;DHT22;48433;53.016;-2.260;2022-10-16T08:06:15;11.60;99.90
59309;DHT22;48433;53.016;-2.260;2022-10-16T08:08:44;12.00;99.90
59309;DHT22;48433;53.016;-2.260;2022-10-16T08:11:12;12.40;99.90
59309;DHT22;48433;53.016;-2.260;2022-10-16T08:13:39;12.70;99.90
59309;DHT22;48433;53.016;-2.260;2022-10-16T08:16:07;13.00;99.90
59309;DHT22;48433;53.016;-2.260;2022-10-16T08:18:37;13.30;99.90
59309;DHT22;48433;53.016;-2.260;2022-10-16T08:21:06;13.60;99.90
59309;DHT22;48433;53.016;-2.260;2022-10-16T08:23:34;13.80;99.90
59309;DHT22;48433;53.016;-2.260;2022-10-16T08:26:04;14.10;99.90
59309;DHT22;48433;53.016;-2.260;2022-10-16T08:28:33;14.40;99.90
59309;DHT22;48433;53.016;-2.260;2022-10-16T08:31:14;14.60;99.90
59309;DHT22;48433;53.016;-2.260;2022-10-16T08:33:44;14.70;99.90
59309;DHT22;48433;53.016;-2.260;2022-10-16T08:36:14;14.80;99.90
59309;DHT22;48433;53.016;-2.260;2022-10-16T08:38:43;15.00;99.90
59309;DHT22;48433;53.016;-2.260;2022-10-16T08:47:21;16.00;99.90
59309;DHT22;48433;53.016;-2.260;2022-10-16T08:49:59;16.30;99.90
59309;DHT22;48433;53.016;-2.260;2022-10-16T08:52:30;16.50;99.90
59309;DHT22;48433;53.016;-2.260;2022-10-16T08:54:59;16.70;99.90
59309;DHT22;48433;53.016;-2.260;2022-10-16T08:57:27;16.80;98.90
59309;DHT22;48433;53.016;-2.260;2022-10-16T09:00:00;16.90;98.40
59309;DHT22;48433;53.016;-2.260;2022-10-16T09:02:40;17.00;98.50
59309;DHT22;48433;53.016;-2.260;2022-10-16T09:10:58;17.60;97.10
59309;DHT22;48433;53.016;-2.260;2022-10-16T09:13:34;17.80;97.00
59309;DHT22;48433;53.016;-2.260;2022-10-16T09:18:45;18.00;95.40
59309;DHT22;48433;53.016;-2.260;2022-10-16T09:21:16;17.90;93.80
59309;DHT22;48433;53.016;-2.260;2022-10-16T09:23:47;17.60;93.30
59309;DHT22;48433;53.016;-2.260;2022-10-16T09:26:16;17.50;93.60
59309;DHT22;48433;53.016;-2.260;2022-10-16T09:28:45;17.30;93.10
59309;DHT22;48433;53.016;-2.260;2022-10-16T09:31:18;17.00;93.30
59309;DHT22;48433;53.016;-2.260;2022-10-16T09:33:53;17.10;93.80
59309;DHT22;48433;53.016;-2.260;2022-10-16T09:36:23;17.50;93.70
59309;DHT22;48433;53.016;-2.260;2022-10-16T09:39:07;18.00;93.10
59309;DHT22;48433;53.016;-2.260;2022-10-16T09:41:37;18.60;92.10
59309;DHT22;48433;53.016;-2.260;2022-10-16T09:44:35;19.00;91.10
59309;DHT22;48433;53.016;-2.260;2022-10-16T09:47:16;19.50;89.50
59309;DHT22;48433;53.016;-2.260;2022-10-16T09:52:24;20.00;80.30
59309;DHT22;48433;53.016;-2.260;2022-10-16T09:57:21;20.30;80.10
59309;DHT22;48433;53.016;-2.260;2022-10-16T09:59:56;20.50;77.50
59309;DHT22;48433;53.016;-2.260;2022-10-16T10:02:31;20.40;74.60
59309;DHT22;48433;53.016;-2.260;2022-10-16T10:05:01;20.50;76.00
59309;DHT22;48433;53.016;-2.260;2022-10-16T10:07:36;20.40;72.50
59309;DHT22;48433;53.016;-2.260;2022-10-16T10:10:18;20.40;73.10
59309;DHT22;48433;53.016;-2.260;2022-10-16T10:12:47;20.60;73.40
59309;DHT22;48433;53.016;-2.260;2022-10-16T10:15:15;21.00;72.20
59309;DHT22;48433;53.016;-2.260;2022-10-16T10:17:51;21.50;71.90
59309;DHT22;48433;53.016;-2.260;2022-10-16T10:20:29;21.80;66.80
59309;DHT22;48433;53.016;-2.260;2022-10-16T10:22:58;22.20;65.30
59309;DHT22;48433;53.016;-2.260;2022-10-16T10:33:55;22.80;54.50
59309;DHT22;48433;53.016;-2.260;2022-10-16T10:36:35;22.50;54.70
59309;DHT22;48433;53.016;-2.260;2022-10-16T10:39:25;22.30;55.50
59309;DHT22;48433;53.016;-2.260;2022-10-16T10:45:01;22.10;53.70
59309;DHT22;48433;53.016;-2.260;2022-10-16T10:59:06;23.00;49.60
59309;DHT22;48433;53.016;-2.260;2022-10-16T11:04:33;22.90;49.60
59309;DHT22;48433;53.016;-2.260;2022-10-16T11:07:12;22.70;49.20
59309;DHT22;48433;53.016;-2.260;2022-10-16T11:09:46;22.50;49.40
59309;DHT22;48433;53.016;-2.260;2022-10-16T11:12:21;22.60;50.60
59309;DHT22;48433;53.016;-2.260;2022-10-16T11:14:58;23.10;50.60
59309;DHT22;48433;53.016;-2.260;2022-10-16T11:17:33;23.40;50.00
59309;DHT22;48433;53.016;-2.260;2022-10-16T11:20:18;23.30;48.10
59309;DHT22;48433;53.016;-2.260;2022-10-16T11:23:02;23.10;48.30
59309;DHT22;48433;53.016;-2.260;2022-10-16T11:25:33;22.60;49.00
59309;DHT22;48433;53.016;-2.260;2022-10-16T11:30:54;21.60;49.60
59309;DHT22;48433;53.016;-2.260;2022-10-16T11:33:40;21.20;50.20
59309;DHT22;48433;53.016;-2.260;2022-10-16T11:39:19;20.00;51.70
59309;DHT22;48433;53.016;-2.260;2022-10-16T11:52:51;16.80;60.00
59309;DHT22;48433;53.016;-2.260;2022-10-16T11:55:34;16.60;61.30
59309;DHT22;48433;53.016;-2.260;2022-10-16T11:58:36;16.20;63.50
59309;DHT22;48433;53.016;-2.260;2022-10-16T12:06:29;15.90;68.50
59309;DHT22;48433;53.016;-2.260;2022-10-16T12:09:01;16.00;69.50
59309;DHT22;48433;53.016;-2.260;2022-10-16T12:11:37;16.10;70.10
59309;DHT22;48433;53.016;-2.260;2022-10-16T12:16:55;16.20;71.80
59309;DHT22;48433;53.016;-2.260;2022-10-16T12:19:28;16.20;72.10
59309;DHT22;48433;53.016;-2.260;2022-10-16T12:21:58;16.10;73.40
59309;DHT22;48433;53.016;-2.260;2022-10-16T12:26:57;16.00;75.70
59309;DHT22;48433;53.016;-2.260;2022-10-16T12:29:37;16.00;76.50
59309;DHT22;48433;53.016;-2.260;2022-10-16T12:32:33;16.10;77.00
59309;DHT22;48433;53.016;-2.260;2022-10-16T12:35:20;16.10;77.00
59309;DHT22;48433;53.016;-2.260;2022-10-16T12:37:49;16.40;76.90
59309;DHT22;48433;53.016;-2.260;2022-10-16T12:40:29;16.60;76.40
59309;DHT22;48433;53.016;-2.260;2022-10-16T12:42:58;16.80;76.70
59309;DHT22;48433;53.016;-2.260;2022-10-16T12:45:30;17.10;76.40
59309;DHT22;48433;53.016;-2.260;2022-10-16T12:48:00;17.30;73.70
59309;DHT22;48433;53.016;-2.260;2022-10-16T12:50:36;17.40;72.00
59309;DHT22;48433;53.016;-2.260;2022-10-16T12:53:19;17.40;71.50
59309;DHT22;48433;53.016;-2.260;2022-10-16T13:01:51;16.70;71.60
59309;DHT22;48433;53.016;-2.260;2022-10-16T13:07:07;16.00;73.80
59309;DHT22;48433;53.016;-2.260;2022-10-16T13:12:50;15.50;77.30
59309;DHT22;48433;53.016;-2.260;2022-10-16T13:18:22;15.20;80.10
59309;DHT22;48433;53.016;-2.260;2022-10-16T13:21:03;15.20;81.10
59309;DHT22;48433;53.016;-2.260;2022-10-16T13:26:45;15.60;82.90
59309;DHT22;48433;53.016;-2.260;2022-10-16T13:29:15;16.10;83.30
59309;DHT22;48433;53.016;-2.260;2022-10-16T13:31:44;17.00;81.90
59309;DHT22;48433;53.016;-2.260;2022-10-16T13:34:21;18.10;79.20
59309;DHT22;48433;53.016;-2.260;2022-10-16T13:36:51;19.40;73.60
59309;DHT22;48433;53.016;-2.260;2022-10-16T13:39:23;20.60;68.90
59309;DHT22;48433;53.016;-2.260;2022-10-16T13:42:04;21.20;64.40
59309;DHT22;48433;53.016;-2.260;2022-10-16T13:44:40;21.30;59.70
59309;DHT22;48433;53.016;-2.260;2022-10-16T13:47:20;20.60;60.00
59309;DHT22;48433;53.016;-2.260;2022-10-16T13:50:00;19.90;61.30
59309;DHT22;48433;53.016;-2.260;2022-10-16T13:52:28;19.20;62.50
59309;DHT22;48433;53.016;-2.260;2022-10-16T13:54:56;18.70;63.80
59309;DHT22;48433;53.016;-2.260;2022-10-16T13:57:28;18.20;65.00
59309;DHT22;48433;53.016;-2.260;2022-10-16T13:59:56;17.80;66.30
59309;DHT22;48433;53.016;-2.260;2022-10-16T14:04:56;17.10;68.00
59309;DHT22;48433;53.016;-2.260;2022-10-16T14:07:26;16.80;68.80
59309;DHT22;48433;53.016;-2.260;2022-10-16T14:09:55;16.60;69.50
59309;DHT22;48433;53.016;-2.260;2022-10-16T14:12:23;16.60;70.60
59309;DHT22;48433;53.016;-2.260;2022-10-16T14:14:55;17.10;69.00
59309;DHT22;48433;53.016;-2.260;2022-10-16T14:17:30;17.70;66.80
59309;DHT22;48433;53.016;-2.260;2022-10-16T14:19:59;18.00;65.00
59309;DHT22;48433;53.016;-2.260;2022-10-16T14:22:39;18.00;64.40
59309;DHT22;48433;53.016;-2.260;2022-10-16T14:28:17;17.50;65.00
59309;DHT22;48433;53.016;-2.260;2022-10-16T14:31:00;17.10;65.80
59309;DHT22;48433;53.016;-2.260;2022-10-16T14:36:02;16.50;68.30
59309;DHT22;48433;53.016;-2.260;2022-10-16T14:38:31;16.40;69.60
59309;DHT22;48433;53.016;-2.260;2022-10-16T14:41:00;16.20;70.70
59309;DHT22;48433;53.016;-2.260;2022-10-16T14:43:34;16.20;71.60
59309;DHT22;48433;53.016;-2.260;2022-10-16T14:46:09;16.20;72.00
59309;DHT22;48433;53.016;-2.260;2022-10-16T14:48:43;16.10;72.40
59309;DHT22;48433;53.016;-2.260;2022-10-16T14:51:16;16.00;72.80
59309;DHT22;48433;53.016;-2.260;2022-10-16T14:53:44;16.00;73.60
59309;DHT22;48433;53.016;-2.260;2022-10-16T14:56:27;16.00;74.30
59309;DHT22;48433;53.016;-2.260;2022-10-16T14:59:00;16.20;75.00
59309;DHT22;48433;53.016;-2.260;2022-10-16T15:01:28;16.30;75.50
59309;DHT22;48433;53.016;-2.260;2022-10-16T15:03:58;16.50;75.50
59309;DHT22;48433;53.016;-2.260;2022-10-16T15:06:26;16.90;75.00
59309;DHT22;48433;53.016;-2.260;2022-10-16T15:08:53;17.50;74.40
59309;DHT22;48433;53.016;-2.260;2022-10-16T15:11:21;18.20;73.10
59309;DHT22;48433;53.016;-2.260;2022-10-16T15:13:48;18.60;70.30
59309;DHT22;48433;53.016;-2.260;2022-10-16T15:16:17;18.60;69.20
59309;DHT22;48433;53.016;-2.260;2022-10-16T15:18:44;18.40;68.80
59309;DHT22;48433;53.016;-2.260;2022-10-16T15:21:30;18.00;69.30
59309;DHT22;48433;53.016;-2.260;2022-10-16T15:23:59;17.50;69.90
59309;DHT22;48433;53.016;-2.260;2022-10-16T15:26:28;17.10;70.60
59309;DHT22;48433;53.016;-2.260;2022-10-16T15:28:56;16.80;71.50
59309;DHT22;48433;53.016;-2.260;2022-10-16T15:31:24;16.50;72.10
59309;DHT22;48433;53.016;-2.260;2022-10-16T15:33:53;16.30;73.20
59309;DHT22;48433;53.016;-2.260;2022-10-16T15:36:27;16.10;73.40
59309;DHT22;48433;53.016;-2.260;2022-10-16T15:38:55;16.00;74.20
59309;DHT22;48433;53.016;-2.260;2022-10-16T15:41:23;15.80;75.00
59309;DHT22;48433;53.016;-2.260;2022-10-16T15:43:52;15.70;75.70
59309;DHT22;48433;53.016;-2.260;2022-10-16T15:46:22;15.50;76.20
59309;DHT22;48433;53.016;-2.260;2022-10-16T15:48:51;15.40;77.30
59309;DHT22;48433;53.016;-2.260;2022-10-16T15:51:18;15.30;78.20
59309;DHT22;48433;53.016;-2.260;2022-10-16T15:53:46;15.30;79.00
59309;DHT22;48433;53.016;-2.260;2022-10-16T15:56:14;15.20;79.80
59309;DHT22;48433;53.016;-2.260;2022-10-16T15:58:43;15.40;79.30
59309;DHT22;48433;53.016;-2.260;2022-10-16T16:01:11;15.50;78.70
59309;DHT22;48433;53.016;-2.260;2022-10-16T16:03:39;15.40;78.50
59309;DHT22;48433;53.016;-2.260;2022-10-16T16:06:12;15.10;78.90
59309;DHT22;48433;53.016;-2.260;2022-10-16T16:08:41;14.80;80.00
59309;DHT22;48433;53.016;-2.260;2022-10-16T16:11:11;14.60;81.00
59309;DHT22;48433;53.016;-2.260;2022-10-16T16:13:40;14.40;82.20
59309;DHT22;48433;53.016;-2.260;2022-10-16T16:16:10;14.30;83.00
59309;DHT22;48433;53.016;-2.260;2022-10-16T16:18:38;14.20;84.10
59309;DHT22;48433;53.016;-2.260;2022-10-16T16:21:06;14.10;84.90
59309;DHT22;48433;53.016;-2.260;2022-10-16T16:23:34;14.10;85.80
59309;DHT22;48433;53.016;-2.260;2022-10-16T16:26:14;14.10;87.00
59309;DHT22;48433;53.016;-2.260;2022-10-16T16:28:43;14.00;87.00
59309;DHT22;48433;53.016;-2.260;2022-10-16T16:31:11;13.90;87.90
59309;DHT22;48433;53.016;-2.260;2022-10-16T16:33:38;13.90;88.90
59309;DHT22;48433;53.016;-2.260;2022-10-16T16:36:06;13.80;89.60
59309;DHT22;48433;53.016;-2.260;2022-10-16T16:38:41;13.70;90.10
59309;DHT22;48433;53.016;-2.260;2022-10-16T16:41:16;13.70;90.40
59309;DHT22;48433;53.016;-2.260;2022-10-16T16:43:44;13.60;90.80
59309;DHT22;48433;53.016;-2.260;2022-10-16T16:46:13;13.60;91.10
59309;DHT22;48433;53.016;-2.260;2022-10-16T16:48:42;13.50;91.40
59309;DHT22;48433;53.016;-2.260;2022-10-16T16:51:12;13.50;91.80
59309;DHT22;48433;53.016;-2.260;2022-10-16T16:53:44;13.40;92.20
59309;DHT22;48433;53.016;-2.260;2022-10-16T16:56:12;13.50;92.60
59309;DHT22;48433;53.016;-2.260;2022-10-16T16:58:40;13.40;93.00
59309;DHT22;48433;53.016;-2.260;2022-10-16T17:01:09;13.40;93.40
59309;DHT22;48433;53.016;-2.260;2022-10-16T17:03:54;13.40;94.20
59309;DHT22;48433;53.016;-2.260;2022-10-16T17:06:25;13.30;94.10
59309;DHT22;48433;53.016;-2.260;2022-10-16T17:08:52;13.20;94.60
59309;DHT22;48433;53.016;-2.260;2022-10-16T17:11:22;13.20;95.20
59309;DHT22;48433;53.016;-2.260;2022-10-16T17:13:51;13.20;95.70
59309;DHT22;48433;53.016;-2.260;2022-10-16T17:16:27;13.20;96.10
59309;DHT22;48433;53.016;-2.260;2022-10-16T17:18:55;13.20;96.90
59309;DHT22;48433;53.016;-2.260;2022-10-16T17:21:23;13.20;97.30
59309;DHT22;48433;53.016;-2.260;2022-10-16T17:23:51;13.10;97.50
59309;DHT22;48433;53.016;-2.260;2022-10-16T17:26:19;13.10;97.70
59309;DHT22;48433;53.016;-2.260;2022-10-16T17:28:51;13.00;98.20
59309;DHT22;48433;53.016;-2.260;2022-10-16T17:31:24;13.10;98.70
59309;DHT22;48433;53.016;-2.260;2022-10-16T17:33:52;13.10;98.90
59309;DHT22;48433;53.016;-2.260;2022-10-16T17:36:21;13.10;99.10
59309;DHT22;48433;53.016;-2.260;2022-10-16T17:38:50;13.10;99.40
59309;DHT22;48433;53.016;-2.260;2022-10-16T17:41:19;13.10;99.80
59309;DHT22;48433;53.016;-2.260;2022-10-16T17:43:48;13.10;99.90
59309;DHT22;48433;53.016;-2.260;2022-10-16T17:46:18;13.10;99.90
59309;DHT22;48433;53.016;-2.260;2022-10-16T17:48:48;13.10;99.90